Time;durP1;ratioP1;P1;durP2;ratioP2;P2;SDS_P1;SDS_P2;PMS_P1;PMS_P2;Temp;Humidity;BMP_temperature;BMP_pressure;BME280_temperature;BME280_humidity;BME280_pressure;Samples;Min_cycle;Max_cycle;Signal;HPM_P1;HPM_P2
2022/03/25 00:02:10;;;;;;;8.52;6.43;;;8.70;31.60;;;;;;5052014;28;20168;-35
2022/03/25 00:04:36;;;;;;;14.70;7.80;;;8.70;31.60;;;;;;5052136;28;20171;-34
2022/03/25 00:07:02;;;;;;;12.93;7.73;;;8.70;31.90;;;;;;5052097;28;20184;-34
2022/03/25 00:09:27;;;;;;;15.00;8.43;;;8.70;31.40;;;;;;5051675;28;20235;-35
2022/03/25 00:11:53;;;;;;;16.93;7.60;;;8.70;31.40;;;;;;5052044;28;20249;-35
2022/03/25 00:14:19;;;;;;;15.57;9.10;;;8.60;31.70;;;;;;5052048;28;20172;-34
2022/03/25 00:16:45;;;;;;;16.92;9.50;;;8.60;31.60;;;;;;5051884;28;20234;-34
2022/03/25 00:19:11;;;;;;;14.85;9.65;;;8.60;31.20;;;;;;5051816;28;20196;-35
2022/03/25 00:21:38;;;;;;;13.63;7.57;;;8.60;31.30;;;;;;5052042;28;20209;-34
2022/03/25 00:24:04;;;;;;;14.13;7.45;;;8.50;32.10;;;;;;5055306;28;20774;-35
2022/03/25 00:26:31;;;;;;;12.88;6.80;;;8.50;31.80;;;;;;5056133;28;20190;-35
2022/03/25 00:28:57;;;;;;;14.57;9.30;;;8.40;31.90;;;;;;5055635;28;20213;-34
2022/03/25 00:31:22;;;;;;;12.45;7.05;;;8.40;31.80;;;;;;5055874;28;20177;-34
2022/03/25 00:33:51;;;;;;;14.93;8.80;;;8.40;31.80;;;;;;5055991;28;20181;-35
2022/03/25 00:36:18;;;;;;;13.15;7.85;;;8.30;31.50;;;;;;5055849;28;20160;-34
2022/03/25 00:38:47;;;;;;;11.43;5.90;;;8.30;31.90;;;;;;5055838;28;20199;-35
2022/03/25 00:41:15;;;;;;;15.45;7.93;;;8.20;31.70;;;;;;5055781;28;20289;-35
2022/03/25 00:43:44;;;;;;;15.02;7.18;;;8.20;31.80;;;;;;5055988;28;20177;-35
2022/03/25 00:46:11;;;;;;;13.98;7.93;;;8.20;31.90;;;;;;5055968;28;20231;-35
2022/03/25 00:48:37;;;;;;;17.25;7.50;;;8.20;31.80;;;;;;5055232;28;20289;-35
2022/03/25 00:51:04;;;;;;;14.02;6.53;;;8.10;32.10;;;;;;5055624;28;20626;-35
2022/03/25 00:53:30;;;;;;;17.02;7.43;;;8.10;32.00;;;;;;5055667;28;20203;-35
2022/03/25 00:55:56;;;;;;;14.32;7.50;;;8.00;32.40;;;;;;5055618;28;20544;-35
2022/03/25 00:58:22;;;;;;;13.48;7.25;;;8.00;32.10;;;;;;5055273;28;20675;-35
2022/03/25 01:00:48;;;;;;;14.57;7.37;;;7.90;31.80;;;;;;5055269;28;20271;-35
2022/03/25 01:03:15;;;;;;;16.67;9.20;;;7.90;31.70;;;;;;5055342;28;20635;-35
2022/03/25 01:05:41;;;;;;;11.73;7.10;;;7.90;32.00;;;;;;5055590;28;20177;-35
2022/03/25 01:08:09;;;;;;;12.10;8.10;;;7.90;32.00;;;;;;5055163;28;20255;-35
2022/03/25 01:10:36;;;;;;;11.77;7.13;;;7.80;32.00;;;;;;5055364;28;20186;-35
2022/03/25 01:13:03;;;;;;;9.95;6.65;;;7.80;31.90;;;;;;5055214;28;20182;-35
2022/03/25 01:15:29;;;;;;;9.80;6.20;;;7.80;32.10;;;;;;5055215;28;20174;-35
2022/03/25 01:17:55;;;;;;;8.45;5.35;;;7.70;32.00;;;;;;5055188;28;20303;-35
2022/03/25 01:20:21;;;;;;;18.13;8.38;;;7.70;32.30;;;;;;5054736;28;20587;-35
2022/03/25 01:22:47;;;;;;;11.60;6.55;;;7.70;31.90;;;;;;5055088;28;20641;-35
2022/03/25 01:25:13;;;;;;;10.30;5.40;;;7.60;32.50;;;;;;5054968;28;20190;-35
2022/03/25 01:27:40;;;;;;;13.53;7.33;;;7.60;32.50;;;;;;5055450;28;20187;-34
2022/03/25 01:30:06;;;;;;;9.77;6.97;;;7.60;32.60;;;;;;5054934;28;20426;-34
2022/03/25 01:32:32;;;;;;;13.45;7.40;;;7.60;32.40;;;;;;5055117;28;20175;-35
2022/03/25 01:34:58;;;;;;;11.13;9.30;;;7.50;32.30;;;;;;5053933;28;20629;-34
2022/03/25 01:37:25;;;;;;;11.07;8.00;;;7.50;32.70;;;;;;5054930;28;20177;-35
2022/03/25 01:39:51;;;;;;;13.75;7.60;;;7.50;32.50;;;;;;5054659;28;20205;-35
2022/03/25 01:42:28;;;;;;;13.73;7.00;;;7.40;32.70;;;;;;5054673;28;20170;-35
2022/03/25 01:44:53;;;;;;;16.13;7.80;;;7.40;32.60;;;;;;5054675;28;20174;-34
2022/03/25 01:47:28;;;;;;;21.90;8.73;;;7.40;32.50;;;;;;5054551;28;20170;-35
2022/03/25 01:49:54;;;;;;;11.95;6.65;;;7.40;33.60;;;;;;5054120;28;20233;-34
2022/03/25 01:52:20;;;;;;;11.98;5.55;;;7.30;32.90;;;;;;5054497;28;20217;-35
2022/03/25 01:54:46;;;;;;;10.00;5.60;;;7.30;32.80;;;;;;5054632;28;20585;-35
2022/03/25 01:57:12;;;;;;;16.58;7.57;;;7.30;32.70;;;;;;5054383;28;20887;-35
2022/03/25 01:59:38;;;;;;;10.30;6.63;;;7.30;32.80;;;;;;5054378;28;20195;-35
2022/03/25 02:02:06;;;;;;;11.43;7.83;;;7.20;32.50;;;;;;5054304;28;20492;-35
2022/03/25 02:04:32;;;;;;;10.18;6.18;;;7.20;32.60;;;;;;5054213;28;20417;-35
2022/03/25 02:06:58;;;;;;;9.05;5.80;;;7.10;32.60;;;;;;5054199;28;20167;-34
2022/03/25 02:09:28;;;;;;;7.32;5.90;;;7.10;32.40;;;;;;5053780;28;20205;-35
2022/03/25 02:11:54;;;;;;;12.45;6.78;;;7.10;32.70;;;;;;5054129;28;20227;-35
2022/03/25 02:14:20;;;;;;;11.73;6.95;;;7.10;32.80;;;;;;5054017;28;20170;-35
2022/03/25 02:16:47;;;;;;;15.63;8.48;;;7.00;33.10;;;;;;5054151;28;20261;-35
2022/03/25 02:19:18;;;;;;;9.02;5.85;;;7.00;33.00;;;;;;5053767;28;20228;-35
2022/03/25 02:21:45;;;;;;;12.43;6.57;;;7.00;32.70;;;;;;5053920;28;20178;-35
2022/03/25 02:24:15;;;;;;;14.95;6.22;;;6.90;32.80;;;;;;5053848;28;20183;-35
2022/03/25 02:26:42;;;;;;;8.55;6.18;;;6.90;32.90;;;;;;5054127;28;20223;-35
2022/03/25 02:29:10;;;;;;;12.95;6.57;;;6.90;33.10;;;;;;5053452;28;20204;-35
2022/03/25 02:31:36;;;;;;;11.55;6.97;;;6.80;33.20;;;;;;5053976;28;20442;-34
2022/03/25 02:34:04;;;;;;;9.55;6.10;;;6.80;33.30;;;;;;5053664;28;20169;-35
2022/03/25 02:36:39;;;;;;;10.70;6.20;;;6.80;33.30;;;;;;5053911;28;20177;-35
2022/03/25 02:39:05;;;;;;;14.23;5.82;;;6.80;32.70;;;;;;5053368;28;20192;-35
2022/03/25 02:41:31;;;;;;;16.13;7.63;;;6.70;33.10;;;;;;5053594;28;20181;-35
2022/03/25 02:43:57;;;;;;;11.93;6.00;;;6.70;33.10;;;;;;5053488;28;20173;-35
2022/03/25 02:46:22;;;;;;;11.07;5.57;;;6.70;33.00;;;;;;5053466;28;20208;-35
2022/03/25 02:48:49;;;;;;;12.53;6.00;;;6.70;33.20;;;;;;5052818;28;20608;-35
2022/03/25 02:51:14;;;;;;;14.23;6.55;;;6.70;33.40;;;;;;5053364;28;20173;-35
2022/03/25 02:53:40;;;;;;;14.53;5.80;;;6.70;33.20;;;;;;5053374;28;20180;-35
2022/03/25 02:56:06;;;;;;;10.80;5.00;;;6.60;33.20;;;;;;5053288;28;20177;-35
2022/03/25 02:58:31;;;;;;;20.43;7.17;;;6.60;33.30;;;;;;5053094;28;20232;-35
2022/03/25 03:00:57;;;;;;;11.67;6.90;;;6.60;33.50;;;;;;5053260;28;20181;-35
2022/03/25 03:03:23;;;;;;;8.70;4.60;;;6.60;33.50;;;;;;5053033;28;20177;-34
2022/03/25 03:05:49;;;;;;;14.17;6.97;;;6.60;33.20;;;;;;5053462;28;20838;-35
2022/03/25 03:08:14;;;;;;;9.53;4.53;;;6.60;33.20;;;;;;5053218;28;20612;-35
2022/03/25 03:10:41;;;;;;;13.17;5.53;;;6.50;33.30;;;;;;5052789;28;20165;-35
2022/03/25 03:13:07;;;;;;;6.57;5.95;;;6.50;33.60;;;;;;5053076;28;20197;-35
2022/03/25 03:15:32;;;;;;;7.40;6.13;;;6.50;33.40;;;;;;5052915;28;20585;-35
2022/03/25 03:17:58;;;;;;;9.67;4.47;;;6.40;33.60;;;;;;5052728;28;20184;-35
2022/03/25 03:20:24;;;;;;;12.30;6.53;;;6.40;33.20;;;;;;5052569;28;20197;-35
2022/03/25 03:22:50;;;;;;;12.70;6.50;;;6.40;33.50;;;;;;5052764;28;20173;-35
2022/03/25 03:25:16;;;;;;;10.73;6.10;;;6.40;33.70;;;;;;5052752;28;20423;-35
2022/03/25 03:27:42;;;;;;;11.53;4.80;;;6.40;33.60;;;;;;5052699;28;20412;-35
2022/03/25 03:30:11;;;;;;;15.30;5.85;;;6.40;33.80;;;;;;5052335;28;20700;-35
2022/03/25 03:32:37;;;;;;;12.73;6.28;;;6.30;33.50;;;;;;5052460;28;20177;-35
2022/03/25 03:35:04;;;;;;;10.73;5.82;;;6.30;33.80;;;;;;5052559;28;20649;-35
2022/03/25 03:37:30;;;;;;;9.75;6.47;;;6.30;33.80;;;;;;5052676;28;20173;-34
2022/03/25 03:39:56;;;;;;;12.93;6.27;;;6.30;33.70;;;;;;5052200;28;20538;-35
2022/03/25 03:42:22;;;;;;;11.73;5.17;;;6.30;33.70;;;;;;5052573;28;20923;-35
2022/03/25 03:44:48;;;;;;;12.30;5.90;;;6.20;33.70;;;;;;5052431;28;20907;-35
2022/03/25 03:47:14;;;;;;;9.85;6.35;;;6.20;33.80;;;;;;5052287;28;20174;-35
2022/03/25 03:49:41;;;;;;;9.75;5.43;;;6.20;33.50;;;;;;5051857;28;20295;-34
2022/03/25 03:52:08;;;;;;;10.35;5.90;;;6.20;33.80;;;;;;5052562;28;20264;-35
2022/03/25 03:54:36;;;;;;;8.45;5.05;;;6.20;33.80;;;;;;5052466;28;20181;-35
2022/03/25 03:57:02;;;;;;;11.20;6.20;;;6.20;33.80;;;;;;5051791;28;20181;-34
2022/03/25 03:59:28;;;;;;;11.07;5.35;;;6.10;33.80;;;;;;5052083;28;20202;-35
2022/03/25 04:01:53;;;;;;;8.70;5.53;;;6.10;33.80;;;;;;5052329;28;20184;-35
2022/03/25 04:04:19;;;;;;;8.80;4.90;;;6.00;34.00;;;;;;5052295;28;20177;-34
2022/03/25 04:06:45;;;;;;;9.20;6.00;;;6.00;34.60;;;;;;5052170;28;20165;-35
2022/03/25 04:09:10;;;;;;;10.33;5.00;;;6.00;33.80;;;;;;5051854;28;20209;-35
2022/03/25 04:11:36;;;;;;;11.50;6.00;;;6.00;33.80;;;;;;5052043;28;20918;-35
2022/03/25 04:14:02;;;;;;;7.97;4.93;;;5.90;34.30;;;;;;5051917;28;20169;-35
2022/03/25 04:16:31;;;;;;;8.25;6.18;;;5.90;34.80;;;;;;5051886;28;20172;-35
2022/03/25 04:18:57;;;;;;;5.50;4.40;;;5.90;34.50;;;;;;5051735;28;20193;-35
2022/03/25 04:21:23;;;;;;;10.45;5.05;;;5.80;34.20;;;;;;5051898;28;20177;-35
2022/03/25 04:23:49;;;;;;;16.73;8.40;;;5.80;34.20;;;;;;5051975;28;20534;-35
2022/03/25 04:26:15;;;;;;;6.67;4.50;;;5.80;34.00;;;;;;5052032;28;20169;-34
2022/03/25 04:28:41;;;;;;;11.43;6.18;;;5.90;34.10;;;;;;5051378;28;20280;-35
2022/03/25 04:31:07;;;;;;;6.63;5.30;;;5.80;34.50;;;;;;5052186;28;20257;-34
2022/03/25 04:33:34;;;;;;;6.28;5.50;;;5.80;34.20;;;;;;5051820;28;20908;-35
2022/03/25 04:36:01;;;;;;;8.02;4.75;;;5.80;34.00;;;;;;5051956;28;20184;-35
2022/03/25 04:38:28;;;;;;;10.38;5.47;;;5.70;34.70;;;;;;5051649;28;20199;-35
2022/03/25 04:40:54;;;;;;;13.80;7.43;;;5.70;34.60;;;;;;5051832;28;20187;-35
2022/03/25 04:43:20;;;;;;;8.52;4.25;;;5.70;34.10;;;;;;5051855;28;20252;-35
2022/03/25 04:45:46;;;;;;;17.37;7.27;;;5.70;34.00;;;;;;5051765;28;20716;-35
2022/03/25 04:48:12;;;;;;;17.02;6.50;;;5.70;34.10;;;;;;5051749;28;20204;-35
2022/03/25 04:50:39;;;;;;;12.13;6.35;;;5.70;34.00;;;;;;5051391;28;20197;-34
2022/03/25 04:53:05;;;;;;;9.68;5.65;;;5.70;33.90;;;;;;5051747;28;20227;-35
2022/03/25 04:55:31;;;;;;;13.23;5.75;;;5.70;33.90;;;;;;5051622;28;20182;-35
2022/03/25 04:57:57;;;;;;;9.67;4.93;;;5.60;33.90;;;;;;5051745;28;20242;-35
2022/03/25 05:00:23;;;;;;;12.40;6.50;;;5.60;34.00;;;;;;5051237;28;20423;-35
2022/03/25 05:02:48;;;;;;;10.83;6.77;;;5.60;34.20;;;;;;5051530;28;20404;-35
2022/03/25 05:05:14;;;;;;;11.27;5.13;;;5.60;34.10;;;;;;5051529;28;20441;-35
2022/03/25 05:07:44;;;;;;;10.55;5.47;;;5.60;34.50;;;;;;5051733;28;20517;-35
2022/03/25 05:10:11;;;;;;;10.43;5.30;;;5.60;34.20;;;;;;5051658;28;20201;-35
2022/03/25 05:12:38;;;;;;;10.77;4.53;;;5.60;34.20;;;;;;5055402;28;20177;-34
2022/03/25 05:15:05;;;;;;;8.30;4.38;;;5.60;34.30;;;;;;5055175;28;20212;-35
2022/03/25 05:17:30;;;;;;;8.32;4.47;;;5.60;34.10;;;;;;5055361;28;20173;-35
2022/03/25 05:19:56;;;;;;;7.13;5.30;;;5.60;34.40;;;;;;5055212;28;20811;-35
2022/03/25 05:22:22;;;;;;;7.23;4.40;;;5.60;34.30;;;;;;5055200;28;20669;-35
2022/03/25 05:24:48;;;;;;;7.75;4.05;;;5.60;34.40;;;;;;5055018;28;20641;-35
2022/03/25 05:27:14;;;;;;;9.75;5.82;;;5.60;34.40;;;;;;5054925;28;20196;-35
2022/03/25 05:29:39;;;;;;;12.57;5.67;;;5.60;34.40;;;;;;5054768;28;20201;-35
2022/03/25 05:32:06;;;;;;;11.10;6.23;;;5.60;34.40;;;;;;5054982;28;20169;-35
2022/03/25 05:34:31;;;;;;;5.55;4.03;;;5.60;34.40;;;;;;5054898;28;20667;-35
2022/03/25 05:36:57;;;;;;;7.17;5.23;;;5.70;34.40;;;;;;5054750;28;20870;-35
2022/03/25 05:39:23;;;;;;;13.27;6.60;;;5.80;34.60;;;;;;5054494;28;20201;-35
2022/03/25 05:41:49;;;;;;;9.40;6.30;;;5.80;35.00;;;;;;5054576;28;20180;-35
2022/03/25 05:44:15;;;;;;;9.70;5.73;;;5.80;34.40;;;;;;5054665;28;20404;-35
2022/03/25 05:46:40;;;;;;;9.87;6.03;;;5.90;34.20;;;;;;5054675;28;20422;-35
2022/03/25 05:49:06;;;;;;;12.20;6.90;;;6.00;34.10;;;;;;5054143;28;20213;-35
2022/03/25 05:51:32;;;;;;;14.23;8.93;;;6.00;34.60;;;;;;5054811;28;20431;-35
2022/03/25 05:53:58;;;;;;;14.90;7.07;;;6.10;34.80;;;;;;5054885;28;20177;-35
2022/03/25 05:56:23;;;;;;;17.63;6.57;;;6.20;34.70;;;;;;5054680;28;20185;-35
2022/03/25 05:58:49;;;;;;;16.27;7.67;;;6.20;34.50;;;;;;5054034;28;20189;-35
2022/03/25 06:01:15;;;;;;;13.67;8.80;;;6.30;34.50;;;;;;5054656;28;20173;-35
2022/03/25 06:03:41;;;;;;;10.70;6.77;;;6.50;34.50;;;;;;5054349;28;20308;-35
2022/03/25 06:06:07;;;;;;;19.80;8.85;;;6.60;34.40;;;;;;5054761;28;20185;-35
2022/03/25 06:08:32;;;;;;;10.77;7.18;;;6.70;34.50;;;;;;5054412;28;20209;-35
2022/03/25 06:10:59;;;;;;;9.40;5.93;;;6.80;34.20;;;;;;5056431;28;20172;-35
2022/03/25 06:13:26;;;;;;;8.00;6.63;;;6.90;34.30;;;;;;5056498;28;20759;-35
2022/03/25 06:15:52;;;;;;;11.60;6.30;;;7.10;34.30;;;;;;5054870;28;20172;-35
2022/03/25 06:18:18;;;;;;;9.50;6.35;;;7.20;34.30;;;;;;5053989;28;20645;-35
2022/03/25 06:20:44;;;;;;;6.30;5.27;;;7.30;34.60;;;;;;5053494;28;20177;-35
2022/03/25 06:23:10;;;;;;;13.38;5.88;;;7.40;34.70;;;;;;5054142;28;20181;-35
2022/03/25 06:25:35;;;;;;;10.50;6.67;;;7.50;34.10;;;;;;5053785;28;20174;-35
2022/03/25 06:28:04;;;;;;;10.30;7.43;;;7.60;34.10;;;;;;5053729;28;20254;-34
2022/03/25 06:30:34;;;;;;;14.38;7.57;;;7.70;33.90;;;;;;5053647;28;20196;-35
2022/03/25 06:33:01;;;;;;;12.55;7.43;;;7.80;34.00;;;;;;5053693;28;20715;-35
2022/03/25 06:35:27;;;;;;;15.52;6.97;;;8.00;33.80;;;;;;5053677;28;20227;-35
2022/03/25 06:37:53;;;;;;;11.83;8.00;;;8.10;33.90;;;;;;5053878;28;20269;-35
2022/03/25 06:40:20;;;;;;;15.32;9.05;;;8.20;34.10;;;;;;5053305;28;20458;-34
2022/03/25 06:42:46;;;;;;;9.95;7.03;;;8.30;34.30;;;;;;5053747;28;20186;-35
2022/03/25 06:45:15;;;;;;;13.20;8.80;;;8.40;33.70;;;;;;5053534;28;20193;-35
2022/03/25 06:47:42;;;;;;;17.17;9.23;;;8.50;34.20;;;;;;5053396;28;20204;-35
2022/03/25 06:50:10;;;;;;;13.52;7.93;;;8.60;33.50;;;;;;5053032;28;20210;-35
2022/03/25 06:52:37;;;;;;;11.82;6.57;;;8.80;33.60;;;;;;5053301;28;20292;-35
2022/03/25 06:55:03;;;;;;;8.90;6.28;;;8.90;33.40;;;;;;5053486;28;20256;-35
2022/03/25 06:57:29;;;;;;;24.55;7.13;;;9.10;33.30;;;;;;5053153;28;20169;-35
2022/03/25 06:59:56;;;;;;;12.57;8.30;;;9.20;33.00;;;;;;5053076;28;20228;-35
2022/03/25 07:02:22;;;;;;;12.82;7.45;;;9.40;32.80;;;;;;5053501;28;20179;-35
2022/03/25 07:04:48;;;;;;;15.32;7.35;;;9.40;32.80;;;;;;5053089;28;20183;-35
2022/03/25 07:07:18;;;;;;;15.93;7.88;;;9.60;32.50;;;;;;5053040;28;20173;-35
2022/03/25 07:09:43;;;;;;;10.38;7.38;;;9.70;32.30;;;;;;5052718;28;20197;-35
2022/03/25 07:12:10;;;;;;;12.90;7.93;;;9.70;32.20;;;;;;5052910;28;20528;-35
2022/03/25 07:14:36;;;;;;;10.35;7.20;;;9.90;32.10;;;;;;5052873;28;20504;-35
2022/03/25 07:17:02;;;;;;;16.90;9.73;;;10.00;31.80;;;;;;5052804;28;20289;-35
2022/03/25 07:19:28;;;;;;;10.53;6.73;;;10.10;31.50;;;;;;5052552;28;20210;-35
2022/03/25 07:21:53;;;;;;;14.48;6.97;;;10.20;31.80;;;;;;5052775;28;20438;-35
2022/03/25 07:24:21;;;;;;;12.60;7.70;;;10.30;31.60;;;;;;5052721;28;20173;-35
2022/03/25 07:26:47;;;;;;;15.70;8.70;;;10.40;31.70;;;;;;5052747;28;20256;-35
2022/03/25 07:29:13;;;;;;;13.38;9.32;;;10.50;31.40;;;;;;5052336;28;20213;-35
2022/03/25 07:31:39;;;;;;;15.30;8.57;;;10.60;31.30;;;;;;5052613;28;20227;-35
2022/03/25 07:34:05;;;;;;;14.13;8.67;;;10.70;31.30;;;;;;5051123;28;20165;-35
2022/03/25 07:36:31;;;;;;;13.40;8.93;;;10.80;31.20;;;;;;5043729;28;20557;-35
2022/03/25 07:38:56;;;;;;;16.47;7.60;;;11.00;31.00;;;;;;5052403;28;20212;-35
2022/03/25 07:41:22;;;;;;;7.77;5.40;;;11.10;31.30;;;;;;5052405;28;20576;-35
2022/03/25 07:43:48;;;;;;;15.00;8.87;;;11.30;31.10;;;;;;5052414;28;20175;-35
2022/03/25 07:46:14;;;;;;;12.45;8.20;;;11.50;31.20;;;;;;5052714;28;20556;-35
2022/03/25 07:48:40;;;;;;;16.70;8.87;;;11.70;31.10;;;;;;5051852;28;20718;-35
2022/03/25 07:51:06;;;;;;;13.60;6.93;;;11.90;30.90;;;;;;5052340;28;20491;-35
2022/03/25 07:53:32;;;;;;;14.48;7.15;;;12.10;30.70;;;;;;5052227;28;20652;-35
2022/03/25 07:55:58;;;;;;;14.93;7.73;;;12.30;30.40;;;;;;5052189;28;20231;-35
2022/03/25 07:58:24;;;;;;;12.88;7.82;;;12.40;29.40;;;;;;5052062;28;20184;-33
2022/03/25 08:00:51;;;;;;;16.60;9.37;;;12.50;29.50;;;;;;5051961;28;20177;-33
2022/03/25 08:03:18;;;;;;;16.63;8.90;;;12.70;29.80;;;;;;5052071;28;20499;-33
2022/03/25 08:05:45;;;;;;;19.45;11.57;;;12.90;30.00;;;;;;5050819;28;20185;-34
2022/03/25 08:08:11;;;;;;;25.83;10.02;;;13.00;29.60;;;;;;5049622;28;20209;-33
2022/03/25 08:10:41;;;;;;;21.10;10.07;;;13.20;29.60;;;;;;5051483;28;20242;-33
2022/03/25 08:13:07;;;;;;;24.27;11.68;;;13.40;29.40;;;;;;5050303;28;20252;-33
2022/03/25 08:15:34;;;;;;;20.13;10.98;;;13.70;29.30;;;;;;5051862;28;20184;-34
2022/03/25 08:18:07;;;;;;;17.20;10.73;;;13.90;29.40;;;;;;5051728;28;20158;-33
2022/03/25 08:20:39;;;;;;;14.30;9.07;;;14.10;29.10;;;;;;5051534;28;20200;-33
2022/03/25 08:23:08;;;;;;;17.38;9.38;;;14.30;29.00;;;;;;5050704;28;20173;-33
2022/03/25 08:28:19;;;;;;;22.00;12.35;;;14.70;27.70;;;;;;5051206;28;20238;-33
2022/03/25 08:30:46;;;;;;;15.15;9.88;;;14.80;26.60;;;;;;5050038;28;20275;-34
2022/03/25 08:33:13;;;;;;;13.82;9.35;;;14.90;27.40;;;;;;5051389;28;20215;-35
2022/03/25 08:35:40;;;;;;;15.95;10.45;;;15.00;26.30;;;;;;5051693;28;20184;-34
2022/03/25 08:38:07;;;;;;;13.70;10.00;;;15.10;26.40;;;;;;5052032;28;20181;-34
2022/03/25 08:40:34;;;;;;;22.00;10.85;;;15.20;25.60;;;;;;5051578;28;20208;-34
2022/03/25 08:43:01;;;;;;;13.60;10.13;;;15.30;26.50;;;;;;5051999;28;20514;-34
2022/03/25 08:45:27;;;;;;;22.13;10.60;;;15.40;24.50;;;;;;5055504;28;20181;-34
2022/03/25 08:47:54;;;;;;;21.75;11.82;;;15.50;24.80;;;;;;5055812;28;20241;-34
2022/03/25 08:50:22;;;;;;;23.98;10.05;;;15.50;24.60;;;;;;5055477;28;20359;-35
2022/03/25 08:52:48;;;;;;;13.85;9.55;;;15.60;24.90;;;;;;5055447;28;20173;-35
2022/03/25 08:55:16;;;;;;;19.80;8.90;;;15.80;25.00;;;;;;5055654;28;20181;-34
2022/03/25 08:57:42;;;;;;;20.00;7.82;;;15.90;24.00;;;;;;5055642;28;20177;-34
2022/03/25 09:00:10;;;;;;;16.43;9.97;;;16.00;24.20;;;;;;5055052;28;20193;-34
2022/03/25 09:02:40;;;;;;;15.88;9.43;;;16.10;25.00;;;;;;5055338;28;20415;-34
2022/03/25 09:05:07;;;;;;;17.90;10.68;;;16.30;23.20;;;;;;5053809;28;20215;-35
2022/03/25 09:07:34;;;;;;;21.17;11.35;;;16.30;23.50;;;;;;5053662;28;20272;-35
2022/03/25 09:09:59;;;;;;;54.50;24.83;;;16.50;23.80;;;;;;5045149;28;20197;-35
2022/03/25 09:12:25;;;;;;;27.50;17.07;;;16.70;24.10;;;;;;5055587;28;20166;-35
2022/03/25 09:14:51;;;;;;;25.93;13.60;;;16.90;24.20;;;;;;5055181;28;20207;-35
2022/03/25 09:17:17;;;;;;;19.03;11.80;;;17.10;24.40;;;;;;5054961;28;20260;-35
2022/03/25 09:19:43;;;;;;;16.07;10.23;;;17.40;23.60;;;;;;5054938;28;20432;-35
2022/03/25 09:22:10;;;;;;;25.45;12.95;;;17.50;22.80;;;;;;5055179;28;20429;-35
2022/03/25 09:24:37;;;;;;;12.68;9.43;;;17.70;23.30;;;;;;5054935;28;20308;-35
2022/03/25 09:27:03;;;;;;;20.53;11.47;;;17.90;23.00;;;;;;5054925;28;20537;-35
2022/03/25 09:29:29;;;;;;;25.38;11.10;;;18.00;21.70;;;;;;5054330;28;20193;-35
2022/03/25 09:31:55;;;;;;;16.23;10.33;;;18.00;22.60;;;;;;5054927;28;20204;-35
2022/03/25 09:37:05;;;;;;;16.98;10.30;;;18.20;20.60;;;;;;5052796;28;20215;-35
2022/03/25 09:39:30;;;;;;;24.20;12.40;;;18.20;20.50;;;;;;5052247;28;20654;-35
2022/03/25 09:41:59;;;;;;;21.10;8.77;;;18.30;20.70;;;;;;5053721;28;20178;-35
2022/03/25 09:44:25;;;;;;;23.20;10.57;;;18.30;20.80;;;;;;5053540;28;20264;-35
2022/03/25 09:46:51;;;;;;;19.17;12.57;;;18.40;21.00;;;;;;5051973;28;20189;-35
2022/03/25 09:49:18;;;;;;;19.07;11.10;;;18.60;21.60;;;;;;5053337;28;20744;-36
2022/03/25 09:51:44;;;;;;;22.42;11.80;;;18.70;20.00;;;;;;5054071;28;20412;-35
2022/03/25 09:54:13;;;;;;;19.40;12.27;;;18.80;20.90;;;;;;5054293;28;20791;-35
2022/03/25 09:56:40;;;;;;;20.17;12.32;;;19.10;21.70;;;;;;5053505;28;20177;-35
2022/03/25 09:59:07;;;;;;;14.57;9.23;;;19.40;20.60;;;;;;5053999;28;20247;-35
2022/03/25 10:01:34;;;;;;;15.60;9.63;;;19.60;17.90;;;;;;5053897;28;20526;-35
2022/03/25 10:04:00;;;;;;;13.95;8.43;;;19.80;19.70;;;;;;5053582;28;20652;-35
2022/03/25 10:06:26;;;;;;;13.77;7.47;;;20.20;20.00;;;;;;5052470;28;20215;-35
2022/03/25 10:08:57;;;;;;;12.27;8.20;;;20.50;19.10;;;;;;5052906;28;20209;-36
2022/03/25 10:11:31;;;;;;;14.35;8.00;;;20.80;19.50;;;;;;5053155;28;20404;-33
2022/03/25 10:14:14;;;;;;;17.75;8.32;;;21.00;20.00;;;;;;5053665;28;20177;-33
2022/03/25 10:16:41;;;;;;;17.80;8.02;;;21.40;20.10;;;;;;5053933;28;20542;-33
2022/03/25 10:19:09;;;;;;;13.93;7.93;;;21.60;19.10;;;;;;5053921;28;20225;-33
2022/03/25 10:21:54;;;;;;;15.68;8.60;;;21.70;18.10;;;;;;5053991;28;20184;-33
2022/03/25 10:24:47;;;;;;;10.90;7.85;;;21.80;18.40;;;;;;5053864;28;20585;-34
2022/03/25 10:27:21;;;;;;;16.63;8.15;;;22.00;18.80;;;;;;5053873;28;20722;-34
2022/03/25 10:29:47;;;;;;;9.98;7.72;;;22.10;17.40;;;;;;5053557;28;20221;-33
2022/03/25 10:32:23;;;;;;;14.93;7.65;;;22.10;17.80;;;;;;5045195;28;20180;-33
2022/03/25 10:35:04;;;;;;;11.70;8.48;;;22.30;17.10;;;;;;5052600;28;20264;-33
2022/03/25 10:37:29;;;;;;;18.88;9.18;;;22.40;17.90;;;;;;5053111;28;20172;-33
2022/03/25 10:39:55;;;;;;;12.10;8.57;;;22.50;18.30;;;;;;5053441;28;20209;-33
2022/03/25 10:42:21;;;;;;;14.70;8.67;;;22.70;18.20;;;;;;5053569;28;20243;-33
2022/03/25 10:44:47;;;;;;;15.73;9.47;;;22.80;18.10;;;;;;5052036;28;20431;-35
2022/03/25 10:47:16;;;;;;;12.90;7.90;;;22.80;17.20;;;;;;5044922;28;20189;-35
2022/03/25 10:49:47;;;;;;;16.33;7.15;;;22.90;17.80;;;;;;5052950;28;20532;-34
2022/03/25 10:52:32;;;;;;;13.93;8.10;;;23.00;17.50;;;;;;5053260;28;20158;-34
2022/03/25 10:55:16;;;;;;;15.75;7.50;;;23.10;17.80;;;;;;5053062;28;20176;-34
2022/03/25 10:57:54;;;;;;;8.35;5.57;;;23.30;17.90;;;;;;5053580;28;20591;-34
2022/03/25 11:00:22;;;;;;;12.80;6.88;;;23.40;16.60;;;;;;5051627;28;20239;-34
2022/03/25 11:02:48;;;;;;;10.35;6.20;;;23.40;17.20;;;;;;5052237;28;20261;-34
2022/03/25 11:05:14;;;;;;;15.50;6.88;;;23.60;17.10;;;;;;5052300;28;20173;-35
2022/03/25 11:07:45;;;;;;;8.83;5.70;;;23.70;17.60;;;;;;5051592;28;20178;-35
2022/03/25 11:10:17;;;;;;;10.23;6.13;;;23.80;15.80;;;;;;5052577;28;20462;-35
2022/03/25 11:12:45;;;;;;;14.67;7.43;;;23.80;16.10;;;;;;5053273;28;20412;-35
2022/03/25 11:15:21;;;;;;;14.93;8.53;;;23.90;17.00;;;;;;5053215;28;20494;-35
2022/03/25 11:17:47;;;;;;;13.37;7.37;;;24.00;17.00;;;;;;5052875;28;20888;-35
2022/03/25 11:20:15;;;;;;;37.47;20.50;;;24.10;16.10;;;;;;5052547;28;20420;-35
2022/03/25 11:23:05;;;;;;;12.03;7.37;;;24.20;16.40;;;;;;5052357;28;20919;-35
2022/03/25 11:25:35;;;;;;;13.00;7.20;;;24.40;16.50;;;;;;5052819;28;20391;-35
2022/03/25 11:28:05;;;;;;;12.87;7.17;;;24.40;16.00;;;;;;5052498;28;20414;-34
2022/03/25 11:30:35;;;;;;;11.47;7.57;;;24.50;16.90;;;;;;5052441;28;20438;-34
2022/03/25 11:33:06;;;;;;;13.50;7.27;;;24.60;16.60;;;;;;5053082;28;20400;-35
2022/03/25 11:35:42;;;;;;;11.20;7.60;;;24.80;17.00;;;;;;5052451;28;20465;-35
2022/03/25 11:38:14;;;;;;;13.07;7.03;;;24.90;15.70;;;;;;5052555;28;20410;-35
2022/03/25 11:40:45;;;;;;;17.33;8.43;;;25.00;17.20;;;;;;5050950;28;20408;-35
2022/03/25 11:43:25;;;;;;;14.27;8.87;;;25.20;16.60;;;;;;5052645;28;20479;-35
2022/03/25 11:46:00;;;;;;;13.83;9.10;;;25.30;15.10;;;;;;5052386;28;20914;-35
2022/03/25 11:48:25;;;;;;;23.27;9.10;;;25.40;16.40;;;;;;5050319;28;20546;-35
2022/03/25 11:50:58;;;;;;;13.63;8.27;;;25.50;16.40;;;;;;5051470;28;21023;-35
2022/03/25 11:53:23;;;;;;;21.70;9.90;;;25.60;15.70;;;;;;5052253;28;20157;-35
2022/03/25 11:55:58;;;;;;;15.97;8.30;;;25.60;16.10;;;;;;5052273;28;20408;-35
2022/03/25 11:58:24;;;;;;;15.47;8.40;;;25.60;16.20;;;;;;5052294;28;20173;-35
2022/03/25 12:00:53;;;;;;;17.80;7.57;;;25.50;15.60;;;;;;5051792;28;20822;-35
2022/03/25 12:03:20;;;;;;;15.60;8.70;;;25.30;15.10;;;;;;5052335;28;20407;-35
2022/03/25 12:06:03;;;;;;;16.63;9.00;;;25.30;16.00;;;;;;5052197;28;20433;-35
2022/03/25 12:08:32;;;;;;;16.17;9.13;;;25.30;16.00;;;;;;5052075;28;20461;-35
2022/03/25 12:11:00;;;;;;;17.50;12.20;;;25.20;16.00;;;;;;5051893;28;20445;-35
2022/03/25 12:13:52;;;;;;;15.73;8.93;;;25.20;15.60;;;;;;5051746;28;20453;-35
2022/03/25 12:16:45;;;;;;;13.67;7.73;;;25.20;16.90;;;;;;5041819;28;20451;-35
2022/03/25 12:19:26;;;;;;;13.53;8.13;;;25.20;15.70;;;;;;5050986;28;20455;-35
2022/03/25 12:21:57;;;;;;;15.20;9.20;;;24.90;14.50;;;;;;5051902;28;20907;-35
2022/03/25 12:24:24;;;;;;;11.70;8.13;;;24.50;14.30;;;;;;5051922;28;20391;-35
2022/03/25 12:27:02;;;;;;;14.00;7.80;;;24.40;16.40;;;;;;5051735;28;20498;-35
2022/03/25 12:29:33;;;;;;;11.70;7.47;;;24.70;16.60;;;;;;5050113;28;20978;-35
2022/03/25 12:32:02;;;;;;;13.63;8.50;;;24.90;16.80;;;;;;5050432;28;20491;-35
2022/03/25 12:35:07;;;;;;;10.33;8.47;;;25.10;15.90;;;;;;5051552;28;20415;-35
2022/03/25 12:37:45;;;;;;;10.73;8.33;;;25.30;16.10;;;;;;5031989;28;20408;-35
2022/03/25 12:40:16;;;;;;;16.20;8.90;;;25.50;16.50;;;;;;5031435;28;20428;-35
2022/03/25 12:42:47;;;;;;;19.37;9.97;;;25.70;16.10;;;;;;5031559;28;20558;-35
2022/03/25 12:45:12;;;;;;;16.47;10.83;;;25.60;14.10;;;;;;5047000;28;20404;-35
2022/03/25 12:47:43;;;;;;;20.03;11.77;;;25.20;15.10;;;;;;5051304;28;20429;-35
2022/03/25 12:50:13;;;;;;;16.87;9.80;;;25.30;16.20;;;;;;5050992;28;20228;-35
2022/03/25 12:52:39;;;;;;;14.97;9.37;;;25.40;14.60;;;;;;5051696;28;20420;-35